Time;durP1;ratioP1;P1;durP2;ratioP2;P2;SDS_P1;SDS_P2;PMS_P1;PMS_P2;Temp;Humidity;BMP_temperature;BMP_pressure;BME280_temperature;BME280_humidity;BME280_pressure;Samples;Min_cycle;Max_cycle;Signal;HPM_P1;HPM_P2
2022/01/27 00:05:31;;;;;;;44.60;25.63;;;;;;;2.99;82.98;102758.59;5044953;28;20127;-63
2022/01/27 00:13:17;;;;;;;47.37;26.37;;;;;;;2.88;83.39;102745.97;5045002;28;20473;-63
2022/01/27 00:15:46;;;;;;;45.80;26.65;;;;;;;2.87;83.54;102739.03;5055779;28;20028;-63
2022/01/27 00:18:17;;;;;;;43.47;26.10;;;;;;;2.87;83.37;102718.06;5052407;28;20032;-62
2022/01/27 00:20:44;;;;;;;46.33;26.33;;;;;;;2.88;83.34;102714.50;5039677;28;20500;-62
2022/01/27 00:23:10;;;;;;;44.40;25.57;;;;;;;2.85;84.01;102720.72;5050304;28;20086;-62
2022/01/27 00:25:35;;;;;;;44.17;25.77;;;;;;;2.88;83.78;102709.28;5052327;28;20040;-63
2022/01/27 00:28:00;;;;;;;44.60;25.93;;;;;;;2.85;84.06;102709.41;5053142;28;20048;-63
2022/01/27 00:30:26;;;;;;;45.90;27.37;;;;;;;2.89;83.42;102708.34;5050553;28;20068;-63
2022/01/27 00:32:51;;;;;;;46.30;25.33;;;;;;;2.92;83.34;102710.84;5051565;28;20041;-62
2022/01/27 00:35:16;;;;;;;44.47;25.60;;;;;;;2.92;83.41;102713.47;5047309;28;20029;-63
2022/01/27 00:37:42;;;;;;;43.03;25.25;;;;;;;2.92;83.62;102710.84;5049422;28;20120;-63
2022/01/27 00:40:11;;;;;;;40.63;24.27;;;;;;;2.92;83.69;102721.34;5052121;28;20040;-63
2022/01/27 00:42:37;;;;;;;45.00;25.50;;;;;;;2.91;82.90;102714.41;5055328;28;20028;-63
2022/01/27 00:45:03;;;;;;;45.93;26.60;;;;;;;2.93;83.58;102723.91;5055256;28;20029;-63
2022/01/27 00:47:28;;;;;;;46.43;25.40;;;;;;;2.94;83.61;102709.00;5056017;28;20033;-63
2022/01/27 00:49:54;;;;;;;44.87;26.77;;;;;;;2.95;84.00;102705.47;5047697;28;20029;-63
2022/01/27 00:52:33;;;;;;;47.17;26.53;;;;;;;3.01;83.18;102692.09;5055733;28;20016;-63
2022/01/27 00:54:58;;;;;;;43.67;25.63;;;;;;;2.98;83.29;102692.25;5052832;28;20531;-63
2022/01/27 00:59:57;;;;;;;43.10;24.75;;;;;;;3.15;82.17;102685.44;5053259;28;20072;-63
2022/01/27 01:02:49;;;;;;;43.57;24.93;;;;;;;3.03;83.08;102678.94;5042060;28;20024;-61
2022/01/27 01:07:53;;;;;;;41.83;22.60;;;;;;;3.04;83.27;102673.63;5053338;28;20069;-63
2022/01/27 01:13:53;;;;;;;43.60;24.17;;;;;;;3.08;82.53;102685.69;5051915;28;20036;-62
2022/01/27 01:15:49;;;;;;;46.17;24.65;;;;;;;3.06;82.50;102671.78;5054118;28;20473;-63
2022/01/27 01:18:36;;;;;;;43.13;25.40;;;;;;;3.05;83.32;102669.22;5046396;28;20052;-63
2022/01/27 01:34:27;;;;;;;41.55;24.00;;;;;;;3.18;82.34;102657.31;5056074;28;20037;-63
2022/01/27 01:39:19;;;;;;;41.55;22.85;;;;;;;3.26;81.93;102659.56;5052408;28;20120;-63
2022/01/27 01:41:44;;;;;;;41.37;24.03;;;;;;;3.19;82.40;102626.69;5053401;28;20119;-63
2022/01/27 01:44:10;;;;;;;39.50;24.10;;;;;;;3.17;82.51;102625.91;5052941;28;20128;-63
2022/01/27 01:46:35;;;;;;;41.13;23.97;;;;;;;3.25;81.77;102618.53;5052937;28;20033;-63
2022/01/27 01:49:00;;;;;;;39.90;23.37;;;;;;;3.24;82.09;102611.59;5053553;28;20028;-63
2022/01/27 01:51:29;;;;;;;39.43;24.13;;;;;;;3.18;82.47;102612.75;5051603;28;20626;-63
2022/01/27 01:53:55;;;;;;;41.63;24.20;;;;;;;3.23;82.66;102625.63;5050868;28;20424;-63
2022/01/27 01:56:21;;;;;;;41.35;24.55;;;;;;;3.23;81.80;102617.75;5045240;28;20040;-63
2022/01/27 01:58:47;;;;;;;39.30;24.08;;;;;;;3.35;81.46;102630.31;5049223;28;20369;-63
2022/01/27 02:01:13;;;;;;;41.50;24.35;;;;;;;3.23;82.07;102620.38;5052564;28;20503;-63
2022/01/27 02:03:38;;;;;;;40.33;23.30;;;;;;;3.19;82.85;102626.69;5049812;28;20059;-63
2022/01/27 02:06:04;;;;;;;39.33;24.23;;;;;;;3.23;82.06;102616.00;5043695;28;20072;-63
2022/01/27 02:08:46;;;;;;;43.10;24.17;;;;;;;3.26;82.60;102604.50;5045299;28;20032;-63
2022/01/27 02:19:31;;;;;;;39.40;23.67;;;;;;;3.21;82.88;102567.19;5049389;28;20087;-61
2022/01/27 02:21:58;;;;;;;38.67;23.80;;;;;;;3.20;82.95;102568.94;5045110;28;20037;-63
2022/01/27 02:24:28;;;;;;;39.15;23.27;;;;;;;3.25;82.68;102565.25;5093217;22;20062;-84
2022/01/27 02:26:54;;;;;;;36.80;23.10;;;;;;;3.24;82.91;102580.13;5032237;22;20057;-83
2022/01/27 02:29:21;;;;;;;42.13;23.97;;;;;;;3.16;82.94;102569.16;5014564;28;20373;-85
2022/01/27 02:31:47;;;;;;;37.30;23.25;;;;;;;3.22;83.36;102592.47;5013484;28;20460;-86
2022/01/27 02:34:13;;;;;;;40.03;23.13;;;;;;;3.31;82.82;102583.34;5003435;28;20037;-86
2022/01/27 02:36:38;;;;;;;40.30;23.15;;;;;;;3.28;82.70;102586.94;4995049;28;20026;-85
2022/01/27 02:39:05;;;;;;;39.63;23.27;;;;;;;3.19;83.43;102571.63;5009742;28;20029;-86
2022/01/27 02:41:48;;;;;;;39.60;23.67;;;;;;;3.31;83.49;102581.53;5001870;28;20018;-84
2022/01/27 02:45:02;;;;;;;41.37;23.00;;;;;;;3.37;82.87;102569.94;5004616;28;20029;-85
2022/01/27 02:47:27;;;;;;;42.05;23.60;;;;;;;3.31;82.36;102551.88;5014544;28;20040;-85
2022/01/27 02:49:54;;;;;;;38.27;22.97;;;;;;;3.38;82.46;102555.03;5012663;28;20124;-85
2022/01/27 02:52:19;;;;;;;42.50;22.77;;;;;;;3.33;82.84;102558.75;5013032;28;20053;-84
2022/01/27 02:54:44;;;;;;;39.63;22.77;;;;;;;3.31;82.96;102546.63;5007213;28;20029;-86
2022/01/27 02:57:10;;;;;;;38.90;22.80;;;;;;;3.30;83.12;102531.81;4993278;28;20032;-86
2022/01/27 02:59:35;;;;;;;37.78;22.27;;;;;;;3.28;83.39;102545.00;4993231;28;20045;-85
2022/01/27 03:02:42;;;;;;;35.90;21.15;;;;;;;3.40;82.98;102545.34;5009057;28;20469;-84
2022/01/27 03:05:08;;;;;;;39.70;22.35;;;;;;;3.15;83.19;102501.91;5002236;28;20065;-85
2022/01/27 03:11:01;;;;;;;36.92;20.52;;;;;;;3.33;83.46;102510.69;5004506;28;20068;-85
2022/01/27 03:13:28;;;;;;;39.97;22.58;;;;;;;3.45;82.42;102520.59;5010930;28;20045;-85
2022/01/27 03:15:53;;;;;;;37.28;21.88;;;;;;;3.43;82.81;102524.19;5012760;28;20116;-84
2022/01/27 03:18:19;;;;;;;38.23;22.00;;;;;;;3.33;83.51;102522.03;5013999;28;20429;-85
2022/01/27 03:20:44;;;;;;;37.77;22.50;;;;;;;3.35;83.49;102509.69;5012502;28;20018;-86
2022/01/27 03:23:10;;;;;;;32.83;17.57;;;;;;;3.43;82.91;102505.84;4997841;28;20481;-84
2022/01/27 03:25:35;;;;;;;36.75;20.83;;;;;;;3.41;82.66;102512.94;4980558;28;20046;-84
2022/01/27 03:28:30;;;;;;;37.25;21.63;;;;;;;3.45;83.50;102504.00;4991324;28;20469;-85
2022/01/27 03:30:55;;;;;;;36.70;21.88;;;;;;;3.35;83.43;102487.84;5014159;28;20022;-84
2022/01/27 03:33:33;;;;;;;39.65;21.77;;;;;;;3.38;83.38;102487.72;4995057;28;20044;-84
2022/01/27 03:35:58;;;;;;;38.15;19.95;;;;;;;3.33;83.52;102484.47;4976402;28;20473;-85
2022/01/27 03:38:23;;;;;;;38.53;21.95;;;;;;;3.36;83.55;102482.53;4976172;28;20030;-84
2022/01/27 03:40:52;;;;;;;34.23;16.83;;;;;;;3.48;83.16;102488.13;4976641;28;20042;-84
2022/01/27 03:43:17;;;;;;;37.42;20.85;;;;;;;3.33;84.16;102482.69;4976379;28;20470;-86
2022/01/27 03:45:42;;;;;;;38.25;20.88;;;;;;;3.35;83.87;102499.19;4976363;28;20031;-85
2022/01/27 03:48:08;;;;;;;34.00;18.60;;;;;;;3.42;83.75;102504.16;4993936;28;20458;-84
2022/01/27 03:50:33;;;;;;;31.10;15.82;;;;;;;3.46;83.77;102503.09;4976423;28;20039;-86
2022/01/27 03:52:58;;;;;;;38.40;21.50;;;;;;;3.32;83.67;102494.13;4977099;28;20034;-84
2022/01/27 03:55:24;;;;;;;36.30;19.38;;;;;;;3.30;84.37;102501.19;4979244;28;20033;-86
2022/01/27 03:57:49;;;;;;;41.25;22.00;;;;;;;3.34;84.55;102487.00;4995696;28;20038;-86
2022/01/27 04:00:15;;;;;;;39.78;21.67;;;;;;;3.39;84.79;102488.56;5013239;28;20075;-85
2022/01/27 04:02:52;;;;;;;38.58;21.38;;;;;;;3.35;83.94;102475.59;4992987;28;20477;-85
2022/01/27 04:05:19;;;;;;;37.42;21.08;;;;;;;3.43;84.13;102485.72;4993467;28;20048;-85
2022/01/27 04:07:44;;;;;;;38.40;21.83;;;;;;;3.52;83.61;102471.31;4995608;28;20088;-84
2022/01/27 04:10:10;;;;;;;37.47;19.80;;;;;;;3.47;83.96;102468.06;5013171;28;20072;-87
2022/01/27 04:12:35;;;;;;;35.17;19.08;;;;;;;3.40;84.68;102457.00;5013272;28;20022;-85
2022/01/27 04:15:00;;;;;;;38.23;21.00;;;;;;;3.31;85.04;102445.19;4999984;28;20062;-84
2022/01/27 04:17:26;;;;;;;41.97;20.48;;;;;;;3.38;85.00;102434.41;4999227;28;20027;-85
2022/01/27 04:19:51;;;;;;;36.55;18.10;;;;;;;3.44;85.25;102450.69;4987718;28;20022;-84
2022/01/27 04:22:24;;;;;;;36.17;20.63;;;;;;;3.48;84.61;102446.16;5020278;28;20026;-84
2022/01/27 04:24:49;;;;;;;38.95;20.77;;;;;;;3.46;84.26;102442.75;5008279;28;20065;-84
2022/01/27 04:31:06;;;;;;;40.97;20.13;;;;;;;3.51;84.89;102456.50;4997126;28;20106;-83
2022/01/27 04:33:33;;;;;;;35.50;19.83;;;;;;;3.46;85.32;102453.25;4981462;28;20436;-85
2022/01/27 04:36:02;;;;;;;38.10;20.37;;;;;;;3.41;85.71;102456.06;4998964;28;20030;-85
2022/01/27 04:38:34;;;;;;;39.92;19.95;;;;;;;3.49;84.69;102442.59;4999974;28;20084;-84
2022/01/27 04:48:37;;;;;;;37.23;20.37;;;;;;;3.42;85.49;102425.47;5020044;28;20030;-84
2022/01/27 04:51:07;;;;;;;38.28;21.02;;;;;;;3.34;85.66;102424.06;5019979;28;20026;-85
2022/01/27 04:53:40;;;;;;;36.93;19.67;;;;;;;3.45;85.11;102430.56;5003393;28;20113;-84
2022/01/27 04:56:07;;;;;;;37.67;21.13;;;;;;;3.53;84.77;102423.16;5002140;28;20022;-84
2022/01/27 04:58:34;;;;;;;34.55;18.90;;;;;;;3.45;85.33;102427.97;5002253;28;20033;-85
2022/01/27 05:01:37;;;;;;;35.97;19.87;;;;;;;3.44;85.30;102419.22;5003201;28;20053;-85
2022/01/27 05:04:08;;;;;;;39.17;20.08;;;;;;;3.44;85.46;102407.88;5007201;28;20452;-85
2022/01/27 05:06:34;;;;;;;36.07;19.67;;;;;;;3.36;85.71;102403.88;5018331;28;20030;-84
2022/01/27 05:08:59;;;;;;;37.78;20.10;;;;;;;3.36;86.42;102403.88;5002248;28;20140;-85
2022/01/27 05:12:10;;;;;;;40.75;19.48;;;;;;;3.47;86.40;102410.38;5001164;28;20057;-84
2022/01/27 05:14:35;;;;;;;37.27;20.17;;;;;;;3.36;85.67;102396.00;5016463;28;20029;-85
2022/01/27 05:17:00;;;;;;;34.23;19.27;;;;;;;3.35;86.37;102404.78;5010742;28;20065;-85
2022/01/27 05:19:26;;;;;;;39.25;20.30;;;;;;;3.35;86.19;102388.19;5018478;28;20085;-86
2022/01/27 05:21:51;;;;;;;36.30;20.77;;;;;;;3.24;86.52;102383.50;5001452;28;20092;-85
2022/01/27 05:24:17;;;;;;;36.40;19.17;;;;;;;3.29;86.76;102381.50;4997013;28;20025;-84
2022/01/27 05:26:42;;;;;;;36.22;20.20;;;;;;;3.33;86.05;102369.94;5017681;28;20065;-84
2022/01/27 05:29:09;;;;;;;36.97;19.63;;;;;;;3.38;86.18;102376.72;5018815;28;20656;-85
2022/01/27 05:31:34;;;;;;;35.63;19.80;;;;;;;3.57;85.31;102363.53;5000138;28;20109;-84
2022/01/27 05:33:59;;;;;;;36.90;19.98;;;;;;;3.34;86.66;102355.03;4997457;28;20488;-85
2022/01/27 05:36:25;;;;;;;38.15;20.35;;;;;;;3.40;86.49;102364.38;4999533;28;20127;-85
2022/01/27 05:38:50;;;;;;;37.55;20.50;;;;;;;3.46;86.36;102361.47;5016644;28;20034;-84
2022/01/27 05:41:16;;;;;;;39.08;18.98;;;;;;;3.52;85.64;102342.78;4994534;28;20042;-85
2022/01/27 05:43:42;;;;;;;36.08;20.40;;;;;;;3.48;86.22;102363.09;4988520;28;20041;-84
2022/01/27 05:46:07;;;;;;;33.00;16.60;;;;;;;3.50;85.68;102355.09;5002628;28;20075;-85
2022/01/27 05:48:33;;;;;;;37.08;19.42;;;;;;;3.55;86.05;102373.25;5003466;28;20460;-83
2022/01/27 05:50:58;;;;;;;33.30;16.73;;;;;;;3.53;86.94;102361.97;5002915;28;20044;-84
2022/01/27 05:53:24;;;;;;;39.05;20.75;;;;;;;3.52;86.59;102357.66;5000428;28;20033;-84
2022/01/27 05:55:49;;;;;;;35.97;18.73;;;;;;;3.68;85.34;102363.84;4998773;28;20523;-85
2022/01/27 05:58:15;;;;;;;35.03;19.97;;;;;;;3.72;85.31;102367.16;5001855;28;20042;-84
2022/01/27 06:00:40;;;;;;;40.20;19.25;;;;;;;3.61;85.76;102358.03;4991922;28;20084;-84
2022/01/27 06:03:06;;;;;;;39.08;19.90;;;;;;;3.61;86.46;102368.53;5005011;28;20040;-84
2022/01/27 06:05:31;;;;;;;39.67;20.40;;;;;;;3.76;85.69;102360.81;5000562;28;20029;-85
2022/01/27 06:07:56;;;;;;;39.95;20.35;;;;;;;3.71;86.32;102360.22;5005331;28;20034;-83
2022/01/27 06:10:22;;;;;;;37.35;19.98;;;;;;;3.60;87.10;102361.59;5001107;28;20041;-85
2022/01/27 06:12:53;;;;;;;35.70;18.95;;;;;;;3.72;86.43;102354.03;5003680;28;20060;-84
2022/01/27 06:15:20;;;;;;;37.75;19.98;;;;;;;3.71;86.13;102349.72;5003479;28;20061;-86
2022/01/27 06:17:45;;;;;;;42.77;20.53;;;;;;;3.72;86.57;102338.28;4999338;28;20037;-86
2022/01/27 06:20:11;;;;;;;38.55;20.42;;;;;;;3.77;86.91;102357.25;5002173;28;20018;-85
2022/01/27 06:22:36;;;;;;;42.35;20.27;;;;;;;3.66;86.76;102339.47;5001033;28;20034;-84
2022/01/27 06:25:02;;;;;;;40.40;20.73;;;;;;;3.83;86.38;102341.22;4998024;28;20096;-86
2022/01/27 06:27:27;;;;;;;38.90;20.80;;;;;;;3.70;87.54;102340.97;5000219;28;20468;-86
2022/01/27 06:29:53;;;;;;;39.15;21.15;;;;;;;3.76;87.20;102342.47;5002671;28;20077;-85
2022/01/27 06:32:18;;;;;;;40.45;21.35;;;;;;;3.76;88.23;102350.31;5003961;28;20041;-85
2022/01/27 06:34:43;;;;;;;38.08;19.13;;;;;;;3.79;87.95;102344.91;5004175;28;20065;-85
2022/01/27 06:37:08;;;;;;;40.47;20.75;;;;;;;3.81;87.53;102331.72;5002754;28;20393;-86
2022/01/27 06:39:34;;;;;;;43.67;21.25;;;;;;;3.70;88.83;102340.16;5006569;28;20058;-85
2022/01/27 06:42:01;;;;;;;43.60;21.58;;;;;;;3.81;88.17;102332.56;5004336;28;20027;-86
2022/01/27 06:44:26;;;;;;;42.35;21.77;;;;;;;3.86;88.34;102335.78;5008363;28;20037;-84
2022/01/27 06:46:52;;;;;;;39.88;20.45;;;;;;;3.75;88.43;102306.66;5004384;28;20030;-84
2022/01/27 06:49:17;;;;;;;40.97;21.98;;;;;;;3.80;89.00;102320.34;5006559;28;20389;-83
2022/01/27 06:51:44;;;;;;;38.65;20.17;;;;;;;3.85;88.79;102313.09;5007115;28;20095;-83
2022/01/27 06:54:10;;;;;;;40.63;20.35;;;;;;;3.93;88.69;102315.31;5008827;28;20041;-85
2022/01/27 06:56:35;;;;;;;45.53;21.83;;;;;;;3.82;88.87;102323.78;4979382;28;20405;-84
2022/01/27 06:59:00;;;;;;;41.92;21.02;;;;;;;3.85;88.50;102317.50;5007825;28;20041;-84
2022/01/27 07:01:27;;;;;;;38.35;19.10;;;;;;;3.81;89.52;102308.09;5010049;28;20037;-83
2022/01/27 07:03:52;;;;;;;40.15;19.73;;;;;;;3.93;88.82;102323.19;5005131;28;20053;-83
2022/01/27 07:06:18;;;;;;;43.08;19.98;;;;;;;3.76;89.24;102292.59;5015501;28;20030;-81
2022/01/27 07:08:43;;;;;;;41.85;19.70;;;;;;;4.00;87.90;102305.34;5010268;28;20034;-84
2022/01/27 07:11:08;;;;;;;40.55;21.65;;;;;;;3.98;88.80;102317.69;5004604;28;20034;-86
2022/01/27 07:13:33;;;;;;;41.30;22.30;;;;;;;3.90;89.12;102305.81;4987953;28;20041;-84
2022/01/27 07:15:59;;;;;;;37.08;18.13;;;;;;;3.92;88.45;102318.88;5005669;28;20034;-84
2022/01/27 07:18:24;;;;;;;43.78;21.92;;;;;;;3.93;89.57;102324.97;5005366;28;20038;-84
2022/01/27 07:20:50;;;;;;;43.72;22.02;;;;;;;4.11;87.74;102328.41;4991348;28;20315;-85
2022/01/27 07:23:15;;;;;;;42.30;22.40;;;;;;;4.04;88.89;102323.47;4996272;28;20038;-84
2022/01/27 07:25:41;;;;;;;37.92;19.48;;;;;;;4.10;88.21;102322.28;5008155;28;20049;-85
2022/01/27 07:28:06;;;;;;;41.97;20.80;;;;;;;4.10;88.43;102327.53;5013496;28;20030;-85
2022/01/27 07:30:31;;;;;;;40.17;20.48;;;;;;;4.08;88.39;102333.78;5002401;28;20036;-84
2022/01/27 07:32:57;;;;;;;43.55;22.70;;;;;;;4.09;87.74;102325.84;5004534;28;20044;-83
2022/01/27 07:35:37;;;;;;;45.53;23.55;;;;;;;4.05;89.20;102334.84;4993187;28;20044;-83
2022/01/27 07:38:04;;;;;;;41.25;19.05;;;;;;;4.19;88.11;102330.63;4993372;28;20042;-86
2022/01/27 07:40:29;;;;;;;42.35;21.90;;;;;;;4.10;88.33;102337.22;4996435;28;21503;-86
2022/01/27 07:42:55;;;;;;;42.13;22.60;;;;;;;4.11;88.90;102333.66;5000920;28;20181;-84
2022/01/27 07:45:20;;;;;;;45.15;21.23;;;;;;;4.17;88.71;102328.06;5004414;28;20030;-85
2022/01/27 07:47:45;;;;;;;45.05;22.17;;;;;;;4.10;88.73;102327.53;5000091;28;20037;-84
2022/01/27 07:50:10;;;;;;;48.92;23.95;;;;;;;4.10;89.38;102335.41;5010388;28;20037;-80
2022/01/27 07:52:36;;;;;;;41.88;21.90;;;;;;;4.25;89.01;102338.16;5009624;28;20038;-80
2022/01/27 07:55:01;;;;;;;43.83;21.92;;;;;;;4.26;89.05;102321.47;5010220;28;20378;-81
2022/01/27 07:57:26;;;;;;;44.35;22.95;;;;;;;4.38;88.90;102331.31;5013818;28;20100;-82
2022/01/27 07:59:51;;;;;;;47.00;23.30;;;;;;;4.37;89.93;102337.50;5013837;28;20045;-80
2022/01/27 08:02:17;;;;;;;47.13;22.00;;;;;;;4.19;90.96;102328.00;4993543;28;20034;-81
2022/01/27 08:04:42;;;;;;;45.40;22.70;;;;;;;4.16;92.09;102337.72;5000415;28;20052;-81
2022/01/27 08:07:08;;;;;;;51.60;24.88;;;;;;;4.11;92.74;102344.16;5005171;28;20113;-81
2022/01/27 08:09:33;;;;;;;52.30;25.25;;;;;;;4.19;92.49;102351.63;5006223;28;20034;-80
2022/01/27 08:11:59;;;;;;;49.78;25.40;;;;;;;4.14;92.76;102342.22;5003820;28;20053;-80
2022/01/27 08:14:24;;;;;;;49.97;24.77;;;;;;;4.24;92.99;102349.59;5003472;28;20038;-80
2022/01/27 08:16:49;;;;;;;50.38;25.10;;;;;;;4.24;93.65;102339.94;5006952;28;20037;-80
2022/01/27 08:19:14;;;;;;;54.85;26.80;;;;;;;4.05;95.08;102345.34;5005484;28;20068;-80
2022/01/27 08:21:40;;;;;;;53.72;25.63;;;;;;;4.06;94.76;102335.66;5005424;28;20034;-79
2022/01/27 08:24:05;;;;;;;51.63;26.95;;;;;;;3.99;96.10;102333.38;5005464;28;20473;-80
2022/01/27 08:29:08;;;;;;;52.50;25.70;;;;;;;4.09;95.83;102331.09;5016799;28;20033;-79
2022/01/27 08:31:42;;;;;;;57.70;28.15;;;;;;;4.02;95.94;102329.72;5007752;28;20092;-79
2022/01/27 08:34:14;;;;;;;52.90;26.60;;;;;;;4.14;95.78;102329.06;5000852;28;20025;-80
2022/01/27 08:36:39;;;;;;;57.28;26.83;;;;;;;4.01;96.66;102322.78;5011547;28;20105;-80
2022/01/27 08:39:05;;;;;;;55.83;27.30;;;;;;;4.08;96.56;102326.78;5008218;28;20173;-78
2022/01/27 08:41:30;;;;;;;52.67;21.92;;;;;;;4.25;95.43;102325.03;5010693;28;20038;-81
2022/01/27 08:43:55;;;;;;;54.05;27.63;;;;;;;4.12;96.82;102330.94;4990719;28;20031;-79
2022/01/27 08:46:20;;;;;;;53.75;27.27;;;;;;;4.09;96.86;102335.50;5011827;28;20431;-80
2022/01/27 08:48:46;;;;;;;59.70;27.85;;;;;;;4.09;96.51;102328.47;5010375;28;20342;-79
2022/01/27 08:51:14;;;;;;;55.75;28.10;;;;;;;4.12;97.50;102340.59;4994536;28;20026;-81
2022/01/27 08:53:39;;;;;;;54.42;27.42;;;;;;;4.15;97.08;102333.38;5011564;28;20034;-80
2022/01/27 08:56:04;;;;;;;51.30;26.58;;;;;;;4.29;96.24;102332.66;5011072;28;20132;-79
2022/01/27 08:58:31;;;;;;;59.03;27.48;;;;;;;4.17;97.16;102323.69;5008666;28;20499;-80
2022/01/27 09:00:57;;;;;;;55.42;28.08;;;;;;;4.23;97.07;102321.63;4992566;28;20034;-80
2022/01/27 09:03:23;;;;;;;52.15;26.92;;;;;;;4.29;97.75;102331.78;5004628;28;20488;-80
2022/01/27 09:05:48;;;;;;;55.80;27.58;;;;;;;4.22;98.35;102333.06;5008512;28;20022;-80
2022/01/27 09:08:14;;;;;;;44.45;21.95;;;;;;;4.41;97.60;102333.78;5001378;28;20065;-80
2022/01/27 09:10:41;;;;;;;54.90;27.33;;;;;;;4.31;98.08;102316.81;5003248;28;20468;-79
2022/01/27 09:13:06;;;;;;;53.88;25.27;;;;;;;4.29;98.96;102316.03;5002316;28;20080;-82
2022/01/27 09:15:32;;;;;;;52.33;27.45;;;;;;;4.49;97.99;102328.09;5000518;28;20155;-79
2022/01/27 09:17:59;;;;;;;57.97;29.05;;;;;;;4.33;98.50;102320.19;4996022;28;20139;-80
2022/01/27 09:20:25;;;;;;;54.10;28.80;;;;;;;4.38;98.19;102310.28;5007496;28;20053;-80
2022/01/27 09:22:53;;;;;;;52.45;28.15;;;;;;;4.46;98.40;102324.78;5007289;28;20103;-81
2022/01/27 09:25:26;;;;;;;56.20;27.13;;;;;;;4.38;99.27;102305.03;5005094;28;20034;-80
2022/01/27 09:27:52;;;;;;;56.20;28.42;;;;;;;4.43;99.09;102318.78;5007738;28;20036;-80
2022/01/27 09:30:18;;;;;;;52.47;27.60;;;;;;;4.37;99.99;102308.59;5007384;28;20025;-81
2022/01/27 09:32:44;;;;;;;54.60;27.00;;;;;;;4.63;99.31;102329.94;5003072;28;20121;-80
2022/01/27 09:35:10;;;;;;;53.03;29.08;;;;;;;4.49;99.81;102327.25;5003825;28;20499;-81
2022/01/27 09:37:35;;;;;;;52.08;29.83;;;;;;;4.46;100.00;102322.16;5002651;28;20033;-80
2022/01/27 09:40:00;;;;;;;51.72;29.50;;;;;;;4.52;99.80;102324.44;4999377;28;20516;-79
2022/01/27 09:42:29;;;;;;;49.95;29.40;;;;;;;4.53;100.00;102328.75;5002397;28;20189;-79
2022/01/27 09:44:58;;;;;;;43.95;23.02;;;;;;;4.58;99.77;102310.97;4998423;28;20034;-80
2022/01/27 09:47:27;;;;;;;52.58;27.95;;;;;;;4.62;99.19;102320.38;5000763;28;20369;-81
2022/01/27 09:50:05;;;;;;;46.47;25.33;;;;;;;4.66;99.91;102316.66;5001803;28;20166;-82
2022/01/27 09:52:30;;;;;;;41.17;21.27;;;;;;;4.74;99.49;102326.72;5004298;28;20037;-82
2022/01/27 09:54:55;;;;;;;50.63;27.27;;;;;;;4.64;99.69;102336.91;5002252;28;20045;-83
2022/01/27 09:57:21;;;;;;;48.33;27.08;;;;;;;4.65;100.00;102333.34;4999078;28;20401;-82
2022/01/27 09:59:46;;;;;;;41.55;19.95;;;;;;;4.68;100.00;102333.19;4998912;28;20682;-83
2022/01/27 10:02:18;;;;;;;44.50;25.60;;;;;;;4.78;100.00;102337.94;4996823;28;20125;-82
2022/01/27 10:05:02;;;;;;;44.10;26.23;;;;;;;4.69;100.00;102326.97;5003164;28;20552;-81
2022/01/27 10:07:38;;;;;;;43.30;26.10;;;;;;;4.78;99.96;102348.44;4999382;28;20164;-81
2022/01/27 10:10:11;;;;;;;48.88;27.35;;;;;;;4.82;100.00;102342.06;5001210;28;20026;-81
2022/01/27 10:12:40;;;;;;;45.17;26.88;;;;;;;4.71;100.00;102333.00;4990730;28;20065;-82
2022/01/27 10:15:17;;;;;;;47.80;27.90;;;;;;;4.68;100.00;102327.06;5006198;28;20096;-82
2022/01/27 10:18:10;;;;;;;44.72;26.65;;;;;;;4.87;100.00;102333.94;5004494;28;20549;-82
2022/01/27 10:20:44;;;;;;;43.58;25.88;;;;;;;4.83;100.00;102339.34;5009984;28;20065;-82
2022/01/27 10:23:16;;;;;;;42.47;25.88;;;;;;;4.79;100.00;102332.56;5007447;28;20021;-82
2022/01/27 10:25:49;;;;;;;44.17;25.58;;;;;;;4.80;100.00;102326.38;4996227;28;20046;-82
2022/01/27 10:28:50;;;;;;;44.35;26.05;;;;;;;4.89;100.00;102338.13;5006836;28;20030;-82
2022/01/27 10:31:23;;;;;;;40.60;23.90;;;;;;;4.85;100.00;102318.25;4994176;28;20033;-82
2022/01/27 10:33:51;;;;;;;36.08;20.75;;;;;;;4.91;100.00;102327.53;5003410;28;20048;-82
2022/01/27 10:36:22;;;;;;;39.58;25.05;;;;;;;4.96;100.00;102325.50;5001555;28;20076;-82
2022/01/27 10:38:51;;;;;;;39.42;24.00;;;;;;;4.88;100.00;102318.06;5009939;28;20029;-82
2022/01/27 10:41:16;;;;;;;40.75;25.85;;;;;;;4.89;100.00;102319.75;5011111;28;20091;-81
2022/01/27 10:43:46;;;;;;;39.28;25.13;;;;;;;4.96;100.00;102328.13;4964381;22;20041;-80
2022/01/27 10:48:53;;;;;;;35.65;21.58;;;;;;;5.01;100.00;102328.72;5088677;28;20077;-81
2022/01/27 10:51:22;;;;;;;39.72;24.80;;;;;;;5.08;100.00;102323.97;5069731;28;20027;-82
2022/01/27 10:54:04;;;;;;;36.25;23.30;;;;;;;5.19;100.00;102328.59;5091139;22;20751;-59
2022/01/27 10:56:38;;;;;;;35.55;23.98;;;;;;;5.20;100.00;102333.78;5043724;28;20029;-62
2022/01/27 10:59:12;;;;;;;37.35;23.15;;;;;;;5.16;100.00;102327.00;5047381;28;20035;-60
2022/01/27 11:01:47;;;;;;;35.63;23.50;;;;;;;5.13;100.00;102332.41;5046182;28;20442;-59
2022/01/27 11:04:13;;;;;;;37.60;23.77;;;;;;;5.14;100.00;102323.63;5048031;28;20064;-57
2022/01/27 11:06:59;;;;;;;41.05;23.13;;;;;;;5.16;100.00;102324.38;5047868;28;20238;-58
2022/01/27 11:09:29;;;;;;;34.80;21.88;;;;;;;5.21;100.00;102324.94;5040537;28;20032;-59
2022/01/27 11:11:56;;;;;;;38.00;22.75;;;;;;;5.32;100.00;102326.13;5054657;22;20314;-60
2022/01/27 11:14:25;;;;;;;36.17;24.38;;;;;;;5.28;100.00;102316.69;5047748;28;20112;-59
2022/01/27 11:16:55;;;;;;;40.28;23.15;;;;;;;5.32;100.00;102326.13;5045579;28;20043;-58
2022/01/27 11:19:54;;;;;;;35.97;23.00;;;;;;;5.44;100.00;102312.22;5046650;28;20021;-58
2022/01/27 11:27:32;;;;;;;30.20;17.75;;;;;;;5.75;100.00;102313.00;4994613;28;20030;-83
2022/01/27 11:30:00;;;;;;;36.92;19.95;;;;;;;5.59;100.00;102299.09;5022898;23;20065;-57
2022/01/27 11:32:31;;;;;;;35.45;23.30;;;;;;;5.59;100.00;102293.81;5026616;28;20033;-56
2022/01/27 11:34:57;;;;;;;39.55;23.88;;;;;;;5.59;100.00;102285.94;5022074;28;20120;-57
2022/01/27 11:37:36;;;;;;;39.38;23.25;;;;;;;5.68;100.00;102295.06;5008084;28;20117;-59
2022/01/27 11:40:12;;;;;;;38.72;22.13;;;;;;;5.71;100.00;102289.59;5002771;28;20117;-62
2022/01/27 11:42:39;;;;;;;35.90;21.70;;;;;;;5.72;100.00;102291.31;5011228;28;20037;-60
2022/01/27 11:45:22;;;;;;;38.00;21.80;;;;;;;5.82;100.00;102281.88;5016349;28;20041;-60
2022/01/27 11:47:58;;;;;;;34.60;20.42;;;;;;;5.78;100.00;102278.59;5018949;28;20092;-60
2022/01/27 11:50:53;;;;;;;40.17;21.50;;;;;;;5.73;100.00;102277.19;5025347;28;20088;-64
2022/01/27 11:53:37;;;;;;;33.45;19.65;;;;;;;5.88;100.00;102275.41;5016683;28;20488;-63
2022/01/27 11:56:27;;;;;;;35.67;20.25;;;;;;;5.96;100.00;102274.94;5016845;28;20029;-60
2022/01/27 11:59:09;;;;;;;39.67;20.85;;;;;;;5.86;100.00;102282.53;5022405;28;20532;-60
2022/01/27 12:01:37;;;;;;;39.92;21.48;;;;;;;5.90;100.00;102286.69;5022776;28;20092;-60
2022/01/27 12:04:04;;;;;;;35.08;21.35;;;;;;;5.82;100.00;102278.41;5020421;28;20044;-59
2022/01/27 12:06:32;;;;;;;35.67;20.73;;;;;;;5.86;100.00;102280.75;5025049;28;20040;-61
2022/01/27 12:09:22;;;;;;;37.70;20.23;;;;;;;6.01;100.00;102275.47;5000264;28;20087;-65
2022/01/27 12:11:58;;;;;;;31.85;18.63;;;;;;;5.95;100.00;102276.72;5019347;28;20051;-64
2022/01/27 12:14:39;;;;;;;30.45;17.05;;;;;;;5.95;100.00;102268.81;5024841;28;20041;-63
2022/01/27 12:17:10;;;;;;;36.03;19.10;;;;;;;5.92;100.00;102271.63;5025961;28;20041;-62
2022/01/27 12:20:02;;;;;;;32.05;17.95;;;;;;;6.09;100.00;102272.38;5025056;28;20037;-59
2022/01/27 12:22:41;;;;;;;32.53;18.02;;;;;;;6.01;100.00;102265.78;5024169;28;20087;-57
2022/01/27 12:25:07;;;;;;;33.42;17.95;;;;;;;6.03;100.00;102263.09;5023578;28;20030;-59
2022/01/27 12:27:32;;;;;;;28.60;16.20;;;;;;;6.13;100.00;102266.81;5026615;28;20542;-58
2022/01/27 12:29:59;;;;;;;27.02;13.88;;;;;;;6.08;100.00;102260.16;5021772;28;20508;-57